createdAt,value
2019-06-20T00:01:51.464Z,7.00
2019-06-20T00:04:19.921Z,6.70
2019-06-20T00:06:48.352Z,6.58
2019-06-20T00:09:17.076Z,7.15
2019-06-20T00:11:45.565Z,7.45
2019-06-20T00:14:14.281Z,6.90
2019-06-20T00:16:42.957Z,7.10
2019-06-20T00:19:11.407Z,7.67
2019-06-20T00:21:39.847Z,6.78
2019-06-20T00:24:08.333Z,6.97
2019-06-20T00:26:36.776Z,7.03
2019-06-20T00:29:05.478Z,7.05
2019-06-20T00:31:34.254Z,7.25
2019-06-20T00:34:02.707Z,7.25
2019-06-20T00:36:31.140Z,7.03
2019-06-20T00:38:59.613Z,7.08
2019-06-20T00:41:28.056Z,7.47
2019-06-20T00:43:56.509Z,6.87
2019-06-20T00:46:24.941Z,7.03
2019-06-20T00:48:53.638Z,7.30
2019-06-20T00:51:22.060Z,6.87
2019-06-20T00:53:50.512Z,7.78
2019-06-20T00:56:18.941Z,7.87
2019-06-20T00:58:47.421Z,8.15
2019-06-20T01:01:15.905Z,7.90
2019-06-20T01:03:44.622Z,9.28
2019-06-20T01:06:13.322Z,9.10
2019-06-20T01:08:42.025Z,9.08
2019-06-20T01:11:10.476Z,8.38
2019-06-20T01:13:39.002Z,8.53
2019-06-20T01:16:07.434Z,8.50
2019-06-20T01:18:36.750Z,9.40
2019-06-20T01:21:05.218Z,9.45
2019-06-20T01:23:34.409Z,10.78
2019-06-20T01:26:03.017Z,11.22
2019-06-20T01:28:31.552Z,10.05
2019-06-20T01:31:00.304Z,11.55
2019-06-20T01:33:28.773Z,9.80
2019-06-20T01:35:57.472Z,8.75
2019-06-20T01:38:26.270Z,9.95
2019-06-20T01:40:54.715Z,10.10
2019-06-20T01:43:23.165Z,9.48
2019-06-20T01:45:51.617Z,9.00
2019-06-20T01:48:20.062Z,8.08
2019-06-20T01:50:48.511Z,8.30
2019-06-20T01:53:16.937Z,7.05
2019-06-20T01:55:45.654Z,7.45
2019-06-20T01:58:14.340Z,6.97
2019-06-20T02:00:50.168Z,5.85
2019-06-20T02:03:19.225Z,6.10
2019-06-20T02:05:47.802Z,6.83
2019-06-20T02:08:16.233Z,6.85
2019-06-20T02:10:44.714Z,6.50
2019-06-20T02:13:13.205Z,7.33
2019-06-20T02:15:41.727Z,7.40
2019-06-20T02:18:10.161Z,6.60
2019-06-20T02:20:56.872Z,7.33
2019-06-20T02:23:25.321Z,7.47
2019-06-20T02:25:54.022Z,7.95
2019-06-20T02:28:23.498Z,7.25
2019-06-20T02:30:51.962Z,7.83
2019-06-20T02:33:20.477Z,8.03
2019-06-20T02:35:49.264Z,8.50
2019-06-20T02:38:17.692Z,7.90
2019-06-20T02:40:46.429Z,8.25
2019-06-20T02:43:14.864Z,8.23
2019-06-20T02:45:43.393Z,7.25
2019-06-20T02:48:12.225Z,7.78
2019-06-20T02:50:40.753Z,7.60
2019-06-20T02:53:09.256Z,7.47
2019-06-20T02:55:37.695Z,7.62
2019-06-20T02:58:06.148Z,7.20
2019-06-20T03:00:40.798Z,7.62
2019-06-20T03:03:09.506Z,7.10
2019-06-20T03:05:38.822Z,7.65
2019-06-20T03:08:07.330Z,6.97
2019-06-20T03:10:36.022Z,6.97
2019-06-20T03:13:04.459Z,7.62
2019-06-20T03:15:33.263Z,7.28
2019-06-20T03:18:02.003Z,8.13
2019-06-20T03:20:30.471Z,7.20
2019-06-20T03:22:58.904Z,7.78
2019-06-20T03:25:27.711Z,7.08
2019-06-20T03:27:56.401Z,7.97
2019-06-20T03:30:25.309Z,7.85
2019-06-20T03:32:54.067Z,8.00
2019-06-20T03:35:22.792Z,8.00
2019-06-20T03:37:51.505Z,7.90
2019-06-20T03:40:20.208Z,8.90
2019-06-20T03:42:48.920Z,8.48
2019-06-20T03:45:17.633Z,8.73
2019-06-20T03:47:46.085Z,8.08
2019-06-20T03:50:15.031Z,8.20
2019-06-20T03:52:43.743Z,8.10
2019-06-20T03:55:12.799Z,8.25
2019-06-20T03:57:41.532Z,7.87
2019-06-20T04:00:11.401Z,8.15
2019-06-20T04:02:39.853Z,8.05
2019-06-20T04:05:08.937Z,7.80
2019-06-20T04:07:37.395Z,7.33
2019-06-20T04:10:06.469Z,7.58
2019-06-20T04:12:35.176Z,7.05
2019-06-20T04:15:17.873Z,7.28
2019-06-20T04:17:34.628Z,7.00
2019-06-20T04:20:05.127Z,6.80
2019-06-20T04:22:33.569Z,7.53
2019-06-20T04:25:02.276Z,6.45
2019-06-20T04:27:30.729Z,6.60
2019-06-20T04:29:59.239Z,6.58
2019-06-20T04:32:27.957Z,6.08
2019-06-20T04:34:56.414Z,6.80
2019-06-20T04:37:24.858Z,6.58
2019-06-20T04:39:53.291Z,7.03
2019-06-20T04:42:21.726Z,7.17
2019-06-20T04:44:51.728Z,7.45
2019-06-20T04:47:20.441Z,7.97
2019-06-20T04:49:48.882Z,7.50
2019-06-20T04:52:17.345Z,8.13
2019-06-20T04:54:45.778Z,7.87
2019-06-20T04:57:14.225Z,6.72
2019-06-20T04:59:42.922Z,6.90
2019-06-20T05:02:14.779Z,7.72
2019-06-20T05:04:41.540Z,7.30
2019-06-20T05:07:15.714Z,7.05
2019-06-20T05:12:12.065Z,6.53
2019-06-20T05:14:40.515Z,6.62
2019-06-20T05:17:08.967Z,5.35
2019-06-20T05:19:37.404Z,5.10
2019-06-20T05:22:05.878Z,4.60
2019-06-20T05:24:34.301Z,4.20
2019-06-20T05:27:03.003Z,4.90
2019-06-20T05:29:31.436Z,4.67
2019-06-20T05:31:59.899Z,4.83
2019-06-20T05:34:28.674Z,4.42
2019-06-20T05:36:57.376Z,3.75
2019-06-20T05:39:25.830Z,3.50
2019-06-20T05:41:54.329Z,3.87
2019-06-20T05:44:22.786Z,4.10
2019-06-20T05:46:51.478Z,3.83
2019-06-20T05:49:20.187Z,3.80
2019-06-20T05:51:48.613Z,3.75
2019-06-20T05:54:17.322Z,3.67
2019-06-20T05:56:45.753Z,3.90
2019-06-20T05:59:14.291Z,3.55
2019-06-20T06:01:42.729Z,3.00
2019-06-20T06:04:11.435Z,3.52
2019-06-20T06:06:39.939Z,3.20
2019-06-20T06:09:08.395Z,3.37
2019-06-20T06:11:37.100Z,3.50
2019-06-20T06:14:05.860Z,3.67
2019-06-20T06:16:34.286Z,3.70
2019-06-20T06:19:02.734Z,3.80
2019-06-20T06:21:31.554Z,3.85
2019-06-20T06:24:00.073Z,3.70
2019-06-20T06:26:28.515Z,3.62
2019-06-20T06:28:56.967Z,3.87
2019-06-20T06:31:25.649Z,4.15
2019-06-20T06:33:54.351Z,3.70
2019-06-20T06:36:22.822Z,3.25
2019-06-20T06:38:51.335Z,3.37
2019-06-20T06:41:19.758Z,3.67
2019-06-20T06:43:48.523Z,3.42
2019-06-20T06:46:17.215Z,3.58
2019-06-20T06:48:45.915Z,4.20
2019-06-20T06:51:14.597Z,4.50
2019-06-20T06:53:43.042Z,3.92
2019-06-20T06:56:11.477Z,3.95
2019-06-20T06:58:39.939Z,3.40
2019-06-20T07:01:10.312Z,3.33
2019-06-20T07:03:38.884Z,3.50
2019-06-20T07:06:07.354Z,3.25
2019-06-20T07:08:35.859Z,3.55
2019-06-20T07:11:04.661Z,3.40
2019-06-20T07:13:33.273Z,3.62
2019-06-20T07:16:01.743Z,4.00
2019-06-20T07:18:30.244Z,3.33
2019-06-20T07:20:58.743Z,3.50
2019-06-20T07:23:27.433Z,3.62
2019-06-20T07:25:55.885Z,3.50
2019-06-20T07:28:24.388Z,3.87
2019-06-20T07:30:53.103Z,4.05
2019-06-20T07:33:21.790Z,4.12
2019-06-20T07:35:50.504Z,4.17
2019-06-20T07:38:18.935Z,2.83
2019-06-20T07:40:47.381Z,4.10
2019-06-20T07:43:15.829Z,4.40
2019-06-20T07:45:58.414Z,4.20
2019-06-20T07:48:14.490Z,4.05
2019-06-20T07:50:43.013Z,4.62
2019-06-20T07:53:11.468Z,4.20
2019-06-20T07:55:39.971Z,4.10
2019-06-20T07:58:08.658Z,4.50
2019-06-20T08:00:37.366Z,3.90
2019-06-20T08:03:06.068Z,4.17
2019-06-20T08:05:34.778Z,4.33
2019-06-20T08:08:03.235Z,4.15
2019-06-20T08:10:31.691Z,3.60
2019-06-20T08:13:00.134Z,3.90
2019-06-20T08:15:28.577Z,4.12
2019-06-20T08:17:57.261Z,4.20
2019-06-20T08:20:26.712Z,5.15
2019-06-20T08:22:55.486Z,4.83
2019-06-20T08:25:24.269Z,5.22
2019-06-20T08:27:53.376Z,4.60
2019-06-20T08:30:27.619Z,5.45
2019-06-20T08:32:59.158Z,5.00
2019-06-20T08:35:28.909Z,4.50
2019-06-20T08:38:01.036Z,4.30
2019-06-20T08:40:31.744Z,4.62
2019-06-20T08:43:01.957Z,3.67
2019-06-20T08:45:32.898Z,3.70
2019-06-20T08:48:02.686Z,3.90
2019-06-20T08:50:31.400Z,3.33
2019-06-20T08:53:01.440Z,2.80
2019-06-20T08:55:30.387Z,4.10
2019-06-20T08:57:59.604Z,3.92
2019-06-20T09:00:30.438Z,3.47
2019-06-20T09:03:00.190Z,4.20
2019-06-20T09:05:30.843Z,3.87
2019-06-20T09:10:35.635Z,3.33
2019-06-20T09:13:04.413Z,3.75
2019-06-20T09:15:32.846Z,3.15
2019-06-20T09:18:01.305Z,3.55
2019-06-20T09:20:29.997Z,3.50
2019-06-20T09:22:58.970Z,3.05
2019-06-20T09:25:27.758Z,3.62
2019-06-20T09:27:56.533Z,3.58
2019-06-20T09:30:25.108Z,3.55
2019-06-20T09:32:53.937Z,4.45
2019-06-20T09:35:22.549Z,3.33
2019-06-20T09:37:51.970Z,4.10
2019-06-20T09:40:21.573Z,3.87
2019-06-20T09:42:50.248Z,3.10
2019-06-20T09:45:21.828Z,4.00
2019-06-20T09:47:50.987Z,3.95
2019-06-20T09:50:21.367Z,3.50
2019-06-20T09:52:51.421Z,2.90
2019-06-20T09:55:20.286Z,2.80
2019-06-20T09:57:50.276Z,2.72
2019-06-20T10:00:22.209Z,2.92
2019-06-20T10:02:52.121Z,3.00
2019-06-20T10:05:21.147Z,2.55
2019-06-20T10:07:50.310Z,2.80
2019-06-20T10:10:20.714Z,2.75
2019-06-20T10:12:49.703Z,2.90
2019-06-20T10:15:24.181Z,3.10
2019-06-20T10:17:54.390Z,4.30
2019-06-20T10:20:24.265Z,3.25
2019-06-20T10:22:53.404Z,2.80
2019-06-20T10:25:22.521Z,2.80
2019-06-20T10:27:51.452Z,3.08
2019-06-20T10:30:22.034Z,2.83
2019-06-20T10:32:51.020Z,2.90
2019-06-20T10:35:21.300Z,2.80
2019-06-20T10:37:50.385Z,2.90
2019-06-20T10:40:19.710Z,2.98
2019-06-20T10:42:48.394Z,2.80
2019-06-20T10:45:18.633Z,2.62
2019-06-20T10:47:47.594Z,3.17
2019-06-20T10:50:17.839Z,2.75
2019-06-20T10:52:47.857Z,2.75
2019-06-20T10:55:17.637Z,2.22
2019-06-20T10:57:46.775Z,2.62
2019-06-20T11:00:30.166Z,2.60
2019-06-20T11:02:47.342Z,2.83
2019-06-20T11:05:16.015Z,2.33
2019-06-20T11:07:45.649Z,2.60
2019-06-20T11:10:16.340Z,2.60
2019-06-20T11:12:50.238Z,1.98
2019-06-20T11:15:15.583Z,2.40
2019-06-20T11:17:44.278Z,2.62
2019-06-20T11:20:14.613Z,2.00
2019-06-20T11:22:43.308Z,2.20
2019-06-20T11:25:13.722Z,2.08
2019-06-20T11:27:42.725Z,2.10
2019-06-20T11:30:23.099Z,2.33
2019-06-20T11:32:51.560Z,1.80
2019-06-20T11:35:20.251Z,2.10
2019-06-20T11:37:48.721Z,1.72
2019-06-20T11:40:17.657Z,1.80
2019-06-20T11:42:46.926Z,2.15
2019-06-20T11:45:16.320Z,1.87
2019-06-20T11:47:44.777Z,1.95
2019-06-20T11:50:14.780Z,1.70
2019-06-20T11:52:45.632Z,1.90
2019-06-20T11:55:13.770Z,1.70
2019-06-20T11:57:42.476Z,1.87
2019-06-20T12:00:10.974Z,1.50
2019-06-20T12:02:41.110Z,1.98
2019-06-20T12:05:10.751Z,1.72
2019-06-20T12:07:40.115Z,1.98
2019-06-20T12:10:10.749Z,1.75
2019-06-20T12:12:40.789Z,1.80
2019-06-20T12:15:09.488Z,2.45
2019-06-20T12:17:39.342Z,2.00
2019-06-20T12:20:11.458Z,2.30
2019-06-20T12:22:41.296Z,2.33
2019-06-20T12:25:11.020Z,2.27
2019-06-20T12:27:40.655Z,2.02
2019-06-20T12:30:11.192Z,2.10
2019-06-20T12:32:40.633Z,2.20
2019-06-20T12:35:09.798Z,2.00
2019-06-20T12:37:40.359Z,2.05
2019-06-20T12:40:09.255Z,2.12
2019-06-20T12:42:39.321Z,2.17
2019-06-20T12:45:10.118Z,2.40
2019-06-20T12:47:40.163Z,2.50
2019-06-20T12:50:10.028Z,2.52
2019-06-20T12:52:39.572Z,2.62
2019-06-20T12:55:10.968Z,2.42
2019-06-20T12:57:40.446Z,2.17
2019-06-20T13:00:11.406Z,2.50
2019-06-20T13:02:40.490Z,2.92
2019-06-20T13:05:10.286Z,2.70
2019-06-20T13:07:40.531Z,2.77
2019-06-20T13:10:10.001Z,2.58
2019-06-20T13:12:40.692Z,2.10
2019-06-20T13:15:08.917Z,2.40
2019-06-20T13:17:39.303Z,2.30
2019-06-20T13:20:08.864Z,2.40
2019-06-20T13:22:37.813Z,2.50
2019-06-20T13:25:07.819Z,2.75
2019-06-20T13:27:38.120Z,2.50
2019-06-20T13:30:08.362Z,2.22
2019-06-20T13:32:38.466Z,2.10
2019-06-20T13:35:07.931Z,2.45
2019-06-20T13:37:36.357Z,2.12
2019-06-20T13:40:07.889Z,2.45
2019-06-20T13:42:36.339Z,2.02
2019-06-20T13:45:07.716Z,2.35
2019-06-20T13:47:36.486Z,2.20
2019-06-20T13:50:06.949Z,2.40
2019-06-20T13:52:38.244Z,2.50
2019-06-20T13:55:06.935Z,2.30
2019-06-20T13:57:35.631Z,2.80
2019-06-20T14:00:08.852Z,2.50
2019-06-20T14:02:38.063Z,2.50
2019-06-20T14:05:06.885Z,2.10
2019-06-20T14:07:35.572Z,2.02
2019-06-20T14:10:08.770Z,2.60
2019-06-20T14:12:37.475Z,2.45
2019-06-20T14:15:07.071Z,2.85
2019-06-20T14:17:35.577Z,2.58
2019-06-20T14:20:08.338Z,2.83
2019-06-20T14:22:36.877Z,2.47
2019-06-20T14:25:08.769Z,2.90
2019-06-20T14:27:37.199Z,2.60
2019-06-20T14:30:08.225Z,2.58
2019-06-20T14:32:36.654Z,2.45
2019-06-20T14:35:05.977Z,2.40
2019-06-20T14:37:34.670Z,2.50
2019-06-20T14:40:04.758Z,2.37
2019-06-20T14:42:33.189Z,2.47
2019-06-20T14:45:01.899Z,2.33
2019-06-20T14:47:30.582Z,2.20
2019-06-20T14:49:59.295Z,2.30
2019-06-20T14:52:27.747Z,3.00
2019-06-20T14:54:56.183Z,2.30
2019-06-20T14:57:24.614Z,2.70
2019-06-20T14:59:54.346Z,2.55
2019-06-20T15:02:34.594Z,2.90
2019-06-20T15:04:54.371Z,3.00
2019-06-20T15:07:22.888Z,2.90
2019-06-20T15:09:51.514Z,3.25
2019-06-20T15:12:20.279Z,3.42
2019-06-20T15:14:49.802Z,3.10
2019-06-20T15:17:19.151Z,3.10
2019-06-20T15:19:47.856Z,3.77
2019-06-20T15:22:17.719Z,3.40
2019-06-20T15:24:48.511Z,3.70
2019-06-20T15:27:16.324Z,3.83
2019-06-20T15:29:47.049Z,3.45
2019-06-20T15:32:15.185Z,4.03
2019-06-20T15:34:43.700Z,3.67
2019-06-20T15:37:12.158Z,4.05
2019-06-20T15:39:40.672Z,4.45
2019-06-20T15:42:09.111Z,4.10
2019-06-20T15:44:37.546Z,3.72
2019-06-20T15:47:06.242Z,4.22
2019-06-20T15:49:34.696Z,3.65
2019-06-20T15:52:03.143Z,3.30
2019-06-20T15:54:31.653Z,3.67
2019-06-20T15:57:00.409Z,3.45
2019-06-20T15:59:29.289Z,3.72
2019-06-20T16:01:57.713Z,3.40
2019-06-20T16:04:26.167Z,3.40
2019-06-20T16:06:54.601Z,3.72
2019-06-20T16:09:23.051Z,3.25
2019-06-20T16:11:51.515Z,3.83
2019-06-20T16:14:20.306Z,3.77
2019-06-20T16:16:48.796Z,3.62
2019-06-20T16:19:17.311Z,4.62
2019-06-20T16:21:46.170Z,3.75
2019-06-20T16:24:14.640Z,3.80
2019-06-20T16:26:43.313Z,3.80
2019-06-20T16:29:12.018Z,3.60
2019-06-20T16:31:40.720Z,3.22
2019-06-20T16:34:09.407Z,2.70
2019-06-20T16:36:37.833Z,3.00
2019-06-20T16:39:08.449Z,2.60
2019-06-20T16:41:37.116Z,2.52
2019-06-20T16:44:06.034Z,2.58
2019-06-20T16:46:34.479Z,2.40
2019-06-20T16:49:03.203Z,2.47
2019-06-20T16:51:31.713Z,2.33
2019-06-20T16:54:00.457Z,2.65
2019-06-20T16:56:29.781Z,2.30
2019-06-20T16:58:58.226Z,2.20
2019-06-20T17:01:26.676Z,2.17
2019-06-20T17:03:55.110Z,2.30
2019-06-20T17:06:23.826Z,1.95
2019-06-20T17:08:52.252Z,2.50
2019-06-20T17:11:20.706Z,2.25
2019-06-20T17:13:49.147Z,2.58
2019-06-20T17:16:17.839Z,2.83
2019-06-20T17:18:46.278Z,2.87
2019-06-20T17:21:15.069Z,2.92
2019-06-20T17:23:43.753Z,2.65
2019-06-20T17:26:12.459Z,2.60
2019-06-20T17:28:41.229Z,2.27
2019-06-20T17:31:09.680Z,2.50
2019-06-20T17:33:39.010Z,2.42
2019-06-20T17:36:17.783Z,2.70
2019-06-20T17:38:37.615Z,2.70
2019-06-20T17:41:06.071Z,3.00
2019-06-20T17:43:34.745Z,3.33
2019-06-20T17:46:03.599Z,2.85
2019-06-20T17:48:32.026Z,2.55
2019-06-20T17:51:00.563Z,2.80
2019-06-20T17:53:29.084Z,2.30
2019-06-20T17:55:57.788Z,2.77
2019-06-20T17:58:26.684Z,2.50
2019-06-20T18:00:55.468Z,8.00
2019-06-20T18:03:23.911Z,11.50
2019-06-20T18:05:52.365Z,5.10
2019-06-20T18:08:21.055Z,3.37
2019-06-20T18:10:50.115Z,3.27
2019-06-20T18:13:18.546Z,2.87
2019-06-20T18:15:47.000Z,2.60
2019-06-20T18:18:15.443Z,2.33
2019-06-20T18:20:43.904Z,2.62
2019-06-20T18:23:12.599Z,2.58
2019-06-20T18:25:41.141Z,2.17
2019-06-20T18:28:09.628Z,2.50
2019-06-20T18:30:43.014Z,2.42
2019-06-20T18:33:13.286Z,2.67
2019-06-20T18:35:41.869Z,2.20
2019-06-20T18:38:10.317Z,2.37
2019-06-20T18:40:39.011Z,2.40
2019-06-20T18:43:07.715Z,2.15
2019-06-20T18:45:36.404Z,2.40
2019-06-20T18:48:05.089Z,2.50
2019-06-20T18:50:33.791Z,3.37
2019-06-20T18:53:02.483Z,4.83
2019-06-20T18:55:30.936Z,4.55
2019-06-20T18:57:59.370Z,4.70
2019-06-20T19:00:34.487Z,7.60
2019-06-20T19:02:58.395Z,6.25
2019-06-20T19:05:27.165Z,9.10
2019-06-20T19:07:55.597Z,5.33
2019-06-20T19:10:25.506Z,3.87
2019-06-20T19:12:54.860Z,3.67
2019-06-20T19:15:23.863Z,4.00
2019-06-20T19:17:52.336Z,6.03
2019-06-20T19:20:20.996Z,5.00
2019-06-20T19:22:49.433Z,4.40
2019-06-20T19:25:18.053Z,3.85
2019-06-20T19:27:47.151Z,4.00
2019-06-20T19:30:16.773Z,3.67
2019-06-20T19:32:45.457Z,3.10
2019-06-20T19:35:14.510Z,3.27
2019-06-20T19:37:42.943Z,3.60
2019-06-20T19:40:13.666Z,3.72
2019-06-20T19:42:42.162Z,3.40
2019-06-20T19:45:13.415Z,3.60
2019-06-20T19:47:42.370Z,3.52
2019-06-20T19:50:12.415Z,3.67
2019-06-20T19:52:41.168Z,3.67
2019-06-20T19:55:10.920Z,3.05
2019-06-20T19:57:39.417Z,3.40
2019-06-20T20:00:11.277Z,3.37
2019-06-20T20:02:39.782Z,3.15
2019-06-20T20:05:18.627Z,3.60
2019-06-20T20:07:39.249Z,3.10
2019-06-20T20:10:09.486Z,3.50
2019-06-20T20:12:38.189Z,3.15
2019-06-20T20:15:09.801Z,3.30
2019-06-20T20:17:38.237Z,3.15
2019-06-20T20:20:07.778Z,3.25
2019-06-20T20:22:36.212Z,3.72
2019-06-20T20:25:09.034Z,3.45
2019-06-20T20:27:37.714Z,3.83
2019-06-20T20:30:10.683Z,3.65
2019-06-20T20:32:39.346Z,3.75
2019-06-20T20:35:07.801Z,4.30
2019-06-20T20:37:36.635Z,3.50
2019-06-20T20:40:11.054Z,3.85
2019-06-20T20:42:39.725Z,3.80
2019-06-20T20:45:09.618Z,3.92
2019-06-20T20:47:38.051Z,3.90
2019-06-20T20:50:07.809Z,4.20
2019-06-20T20:52:36.238Z,4.10
2019-06-20T20:55:10.343Z,4.20
2019-06-20T21:00:12.242Z,4.70
2019-06-20T21:02:40.930Z,4.22
2019-06-20T21:05:09.548Z,4.00
2019-06-20T21:07:39.236Z,4.33
2019-06-20T21:10:08.498Z,4.85
2019-06-20T21:12:36.931Z,4.42
2019-06-20T21:15:07.338Z,4.90
2019-06-20T21:17:36.011Z,4.58
2019-06-20T21:20:09.150Z,5.37
2019-06-20T21:22:37.573Z,5.27
2019-06-20T21:25:07.119Z,4.35
2019-06-20T21:27:35.808Z,4.22
2019-06-20T21:30:06.563Z,4.67
2019-06-20T21:32:34.998Z,5.10
2019-06-20T21:35:04.891Z,4.33
2019-06-20T21:37:33.332Z,4.92
2019-06-20T21:40:01.771Z,4.37
2019-06-20T21:42:30.214Z,4.62
2019-06-20T21:44:58.662Z,4.97
2019-06-20T21:47:27.351Z,5.20
2019-06-20T21:49:55.794Z,5.20
2019-06-20T21:52:24.499Z,5.30
2019-06-20T21:54:54.176Z,5.33
2019-06-20T21:57:22.877Z,5.22
2019-06-20T21:59:51.313Z,5.65
2019-06-20T22:02:19.780Z,5.65
2019-06-20T22:04:54.500Z,5.58
2019-06-20T22:07:18.662Z,5.92
2019-06-20T22:09:47.415Z,5.12
2019-06-20T22:12:16.113Z,6.30
2019-06-20T22:14:44.546Z,6.08
2019-06-20T22:17:13.305Z,5.65
2019-06-20T22:19:41.737Z,5.83
2019-06-20T22:22:10.442Z,5.85
2019-06-20T22:24:38.865Z,6.17
2019-06-20T22:27:07.309Z,5.58
2019-06-20T22:29:35.745Z,5.55
2019-06-20T22:32:04.186Z,6.62
2019-06-20T22:34:32.863Z,6.65
2019-06-20T22:37:01.319Z,5.90
2019-06-20T22:39:29.821Z,5.60
2019-06-20T22:41:58.272Z,5.47
2019-06-20T22:44:26.705Z,5.92
2019-06-20T22:46:55.145Z,5.45
2019-06-20T22:49:23.576Z,7.12
2019-06-20T22:51:52.025Z,6.58
2019-06-20T22:54:20.448Z,6.60
2019-06-20T22:56:48.897Z,6.75
2019-06-20T22:59:17.333Z,7.47
2019-06-20T23:01:45.778Z,7.90
2019-06-20T23:04:14.458Z,8.35
2019-06-20T23:06:55.292Z,8.38
2019-06-20T23:09:13.077Z,8.63
2019-06-20T23:11:41.519Z,9.15
2019-06-20T23:14:09.961Z,9.03
2019-06-20T23:16:38.469Z,9.50
2019-06-20T23:19:07.174Z,10.08
2019-06-20T23:21:35.614Z,8.55
2019-06-20T23:24:04.309Z,7.40
2019-06-20T23:26:32.753Z,6.53
2019-06-20T23:29:19.312Z,6.75
2019-06-20T23:31:47.821Z,6.78
2019-06-20T23:34:16.278Z,6.87
2019-06-20T23:36:44.714Z,5.90
2019-06-20T23:39:13.263Z,4.30
2019-06-20T23:41:41.832Z,3.40
2019-06-20T23:44:10.421Z,2.52
2019-06-20T23:46:39.078Z,2.37
2019-06-20T23:49:07.753Z,2.27
2019-06-20T23:51:38.335Z,2.40
2019-06-20T23:54:07.091Z,1.87
2019-06-20T23:56:35.688Z,2.20
2019-06-20T23:59:04.389Z,1.90
